Time;durP1;ratioP1;P1;durP2;ratioP2;P2;SDS_P1;SDS_P2;PMS_P1;PMS_P2;Temp;Humidity;BMP_temperature;BMP_pressure;BME280_temperature;BME280_humidity;BME280_pressure;Samples;Min_cycle;Max_cycle;Signal;HPM_P1;HPM_P2
2022/06/22 00:12:33;;;;;;;4.17;2.43;;;;;;;12.91;60.43;99954.22;30858966;28;96644;-69
2022/06/22 00:27:37;;;;;;;5.75;2.50;;;;;;;12.79;61.21;99960.06;30857560;28;96675;-61
2022/06/22 00:42:42;;;;;;;5.40;2.63;;;;;;;12.62;61.82;99964.84;30856836;28;96706;-61
2022/06/22 00:57:53;;;;;;;7.27;3.73;;;;;;;12.38;62.28;99944.63;30855910;28;96838;-62
2022/06/22 01:12:57;;;;;;;6.33;3.40;;;;;;;12.13;63.53;99930.78;30854577;28;96717;-62
2022/06/22 01:28:00;;;;;;;5.63;4.20;;;;;;;11.95;64.85;99923.16;30870845;28;97464;-61
2022/06/22 01:43:17;;;;;;;7.17;3.47;;;;;;;11.74;65.45;99924.72;30874331;28;96970;-61
2022/06/22 01:58:17;;;;;;;6.63;3.63;;;;;;;11.57;66.01;99908.03;30872783;28;97720;-62
2022/06/22 02:13:33;;;;;;;8.88;3.70;;;;;;;11.37;66.78;99913.06;30871195;28;96719;-61
2022/06/22 02:28:33;;;;;;;5.77;3.80;;;;;;;11.22;67.87;99928.25;30868969;28;96652;-62
2022/06/22 02:58:54;;;;;;;7.47;4.13;;;;;;;11.08;68.57;99935.19;30865889;28;97072;-62
2022/06/22 03:14:03;;;;;;;33.90;18.85;;;;;;;11.21;68.95;99910.56;30863326;28;96653;-62
2022/06/22 03:29:22;;;;;;;6.40;3.90;;;;;;;11.51;68.75;99909.63;30861794;28;96611;-67
2022/06/22 03:44:33;;;;;;;12.97;4.23;;;;;;;11.71;68.90;99927.72;30860346;28;97031;-69
2022/06/22 03:59:40;;;;;;;5.90;4.17;;;;;;;12.15;69.16;99937.59;30859925;28;96592;-68
2022/06/22 04:15:02;;;;;;;10.60;5.23;;;;;;;12.39;69.00;99922.25;30854363;28;97178;-62
2022/06/22 04:30:03;;;;;;;12.20;5.17;;;;;;;12.89;68.62;99945.56;30843338;28;97131;-63
2022/06/22 04:45:04;;;;;;;10.30;4.38;;;;;;;13.56;67.70;99948.78;30850219;28;96723;-63
2022/06/22 05:00:13;;;;;;;7.73;4.50;;;;;;;14.04;67.14;99951.56;30852407;28;96630;-62
2022/06/22 05:15:21;;;;;;;9.70;5.70;;;;;;;14.59;66.68;99958.75;30935222;28;97242;-63
2022/06/22 05:30:22;;;;;;;12.50;5.73;;;;;;;15.21;65.87;99984.47;30770804;28;97019;-64
2022/06/22 05:45:27;;;;;;;10.90;4.28;;;;;;;15.89;64.48;99983.38;30715170;28;97123;-61
2022/06/22 06:00:40;;;;;;;7.20;3.07;;;;;;;16.68;62.70;99977.09;30717935;28;97282;-62
2022/06/22 06:15:40;;;;;;;;;;;;;;;17.71;59.75;99980.47;30737736;28;96910;-63
2022/06/22 06:30:50;;;;;;;4.53;1.90;;;;;;;18.78;56.50;99969.25;30737565;28;97383;-62
2022/06/22 06:45:52;;;;;;;2.87;1.20;;;;;;;19.82;51.37;99978.00;30734159;28;97161;-63
2022/06/22 07:00:53;;;;;;;2.60;1.37;;;;;;;20.81;47.74;99972.66;30732295;28;96933;-62
2022/06/22 07:15:57;;;;;;;2.30;1.20;;;;;;;21.66;43.47;99978.13;30729501;28;97175;-63
2022/06/22 07:31:10;;;;;;;4.17;1.00;;;;;;;21.94;39.64;99986.09;30735332;28;97416;-66
2022/06/22 07:46:25;;;;;;;1.87;0.80;;;;;;;21.57;37.07;99988.56;30736994;28;96885;-62
2022/06/22 08:01:31;;;;;;;3.90;1.03;;;;;;;22.38;34.91;99982.63;30737437;28;96800;-63
2022/06/22 08:16:51;;;;;;;1.40;0.73;;;;;;;23.30;32.35;99958.25;30736641;28;96696;-63
2022/06/22 08:31:59;;;;;;;1.23;0.50;;;;;;;23.56;31.54;99944.81;30734212;28;96874;-63
2022/06/22 08:48:02;;;;;;;1.90;0.80;;;;;;;23.40;30.95;99959.41;30733105;28;96731;-64
2022/06/22 09:03:22;;;;;;;2.77;0.60;;;;;;;24.44;29.91;99942.50;30748843;28;97617;-64
2022/06/22 09:18:41;;;;;;;1.80;0.70;;;;;;;24.43;29.79;99930.78;30731051;28;96616;-64
2022/06/22 09:34:18;;;;;;;2.20;0.50;;;;;;;25.25;28.63;99929.25;30729176;28;98165;-67
2022/06/22 09:49:33;;;;;;;5.20;0.70;;;;;;;25.92;27.82;99916.28;30748601;28;96781;-66
2022/06/22 10:04:39;;;;;;;3.43;1.03;;;;;;;27.02;26.76;99924.38;30748467;28;96731;-62
2022/06/22 10:20:04;;;;;;;1.80;0.70;;;;;;;26.81;26.34;99920.97;30747688;28;97344;-63
2022/06/22 10:35:22;;;;;;;1.83;0.90;;;;;;;26.65;26.52;99919.44;30746161;28;97432;-64
2022/06/22 10:50:38;;;;;;;3.57;1.13;;;;;;;26.71;26.74;99903.84;30742603;28;96832;-63
2022/06/22 11:05:57;;;;;;;2.53;1.03;;;;;;;26.72;26.45;99887.16;30742445;28;96628;-64
2022/06/22 11:21:24;;;;;;;1.53;0.60;;;;;;;26.27;26.80;99887.19;30740962;28;97144;-63
2022/06/22 11:37:02;;;;;;;2.40;0.90;;;;;;;26.37;26.69;99904.59;30806723;28;96934;-64
2022/06/22 11:52:36;;;;;;;3.17;0.90;;;;;;;26.58;26.49;99911.56;30862884;28;96771;-66
2022/06/22 12:07:39;;;;;;;5.17;0.70;;;;;;;27.46;26.53;99924.50;30856155;28;96874;-62
2022/06/22 12:22:52;;;;;;;3.03;0.73;;;;;;;27.60;26.22;99906.31;30854194;28;98540;-69
2022/06/22 12:38:20;;;;;;;2.63;0.80;;;;;;;26.52;26.14;99885.38;30849907;28;98456;-67
2022/06/22 12:53:37;;;;;;;2.33;0.70;;;;;;;26.25;26.45;99886.66;30850698;28;97141;-64
2022/06/22 13:08:38;;;;;;;3.87;0.87;;;;;;;26.04;26.79;99868.75;30851231;28;96628;-64
2022/06/22 13:24:05;;;;;;;2.20;0.80;;;;;;;26.27;26.94;99842.69;30849215;28;96883;-67
2022/06/22 13:39:05;;;;;;;2.27;0.80;;;;;;;26.80;26.42;99820.16;30851076;28;96812;-66
2022/06/22 13:54:50;;;;;;;3.67;0.60;;;;;;;26.94;27.17;99798.44;30848246;28;96705;-66
2022/06/22 14:10:21;;;;;;;2.97;0.60;;;;;;;26.31;27.37;99787.25;30843528;28;96795;-63
2022/06/22 14:25:34;;;;;;;3.33;0.77;;;;;;;25.74;27.97;99773.13;30801837;28;97787;-64
2022/06/22 14:41:04;;;;;;;5.20;1.00;;;;;;;26.02;27.58;99779.78;30736354;28;96822;-68
2022/06/22 14:56:12;;;;;;;2.90;0.80;;;;;;;25.49;28.21;99776.78;30854882;28;97109;-65
2022/06/22 15:27:21;;;;;;;2.73;0.80;;;;;;;25.47;28.97;99747.06;30733896;28;96809;-63
2022/06/22 15:42:27;;;;;;;4.50;1.60;;;;;;;25.13;29.27;99730.56;30737816;28;97087;-65
2022/06/22 15:57:37;;;;;;;2.20;0.70;;;;;;;25.07;29.17;99723.50;30736430;28;97296;-64
2022/06/22 16:28:14;;;;;;;3.07;0.83;;;;;;;25.03;29.57;99715.09;30847283;28;97913;-63
2022/06/22 16:43:30;;;;;;;2.60;1.00;;;;;;;25.08;29.44;99719.69;30880523;28;97875;-70
2022/06/22 16:58:35;;;;;;;3.57;1.20;;;;;;;24.79;29.29;99721.13;30886756;28;96767;-69
2022/06/22 17:13:47;;;;;;;5.17;1.00;;;;;;;24.34;29.88;99720.09;30751418;28;96838;-64
2022/06/22 17:29:13;;;;;;;9.70;1.10;;;;;;;24.08;30.66;99720.09;30730111;28;96814;-64
2022/06/22 17:44:41;;;;;;;3.20;0.90;;;;;;;23.83;31.18;99724.41;30729132;28;96689;-62
2022/06/22 18:00:02;;;;;;;4.10;1.20;;;;;;;23.65;31.70;99728.44;30731546;28;96725;-66
2022/06/22 18:15:16;;;;;;;2.47;1.07;;;;;;;23.59;32.79;99724.09;30797313;28;96791;-71
2022/06/22 18:30:36;;;;;;;5.37;0.90;;;;;;;23.49;34.30;99732.22;30864961;28;97250;-63
2022/06/22 18:45:40;;;;;;;;;;;;;;;22.92;35.49;99745.53;30864565;28;96852;-64
2022/06/22 19:00:44;;;;;;;4.00;2.00;;;;;;;22.29;36.35;99754.31;30864963;28;96929;-71
2022/06/22 19:15:54;;;;;;;5.47;1.80;;;;;;;21.88;37.38;99767.47;30861315;28;96698;-70
2022/06/22 19:31:12;;;;;;;4.23;1.80;;;;;;;21.33;39.21;99777.38;30861448;28;97094;-63
2022/06/22 19:46:30;;;;;;;11.90;5.10;;;;;;;20.85;40.98;99768.91;30860538;28;96754;-66
2022/06/22 20:01:36;;;;;;;7.57;2.10;;;;;;;20.80;41.95;99782.34;30858547;28;97187;-62
2022/06/22 20:16:53;;;;;;;5.90;2.37;;;;;;;20.29;43.42;99785.03;30854514;28;97479;-62
2022/06/22 20:32:32;;;;;;;3.47;1.80;;;;;;;19.71;45.08;99792.31;30854100;28;96966;-62
2022/06/22 20:47:57;;;;;;;7.17;3.97;;;;;;;18.89;47.22;99803.03;30856767;28;97357;-62
2022/06/22 21:02:58;;;;;;;6.03;2.37;;;;;;;19.25;48.15;99820.03;30851958;28;97247;-69
2022/06/22 21:18:10;;;;;;;9.82;3.30;;;;;;;19.25;48.77;99830.03;30853002;28;96752;-74
2022/06/22 21:33:16;;;;;;;6.93;2.80;;;;;;;18.68;49.92;99833.25;30847907;28;97242;-62
2022/06/22 21:48:25;;;;;;;21.37;3.50;;;;;;;18.21;51.02;99823.19;30869123;28;97046;-70
2022/06/22 22:03:38;;;;;;;6.07;2.60;;;;;;;17.81;52.33;99854.16;30872198;28;96830;-63
2022/06/22 22:18:42;;;;;;;7.57;2.90;;;;;;;17.74;52.91;99861.47;30870916;28;97041;-62
2022/06/22 22:33:43;;;;;;;6.30;2.90;;;;;;;17.13;53.25;99861.31;30868731;28;97555;-64
2022/06/22 22:49:08;;;;;;;6.60;2.47;;;;;;;16.52;54.38;99854.72;30867565;28;96678;-62
2022/06/22 23:04:19;;;;;;;11.03;2.87;;;;;;;16.18;55.22;99864.88;30872456;28;96937;-61
2022/06/22 23:19:45;;;;;;;4.67;2.97;;;;;;;15.90;56.26;99861.47;30864835;28;97338;-62
2022/06/22 23:34:50;;;;;;;5.73;3.30;;;;;;;15.61;57.48;99870.88;30862985;28;96820;-62
2022/06/22 23:49:53;;;;;;;5.97;2.93;;;;;;;15.38;58.52;99874.03;30862183;28;96670;-65
